Latest Weather Observations for Cerberus

IDV60801

Issued at 5:31 pm EST Friday 4 September 2015 (issued every 30 minutes, with the page automatically refreshed every 10 minutes)

About weather observations | Map of weather stations | Latest weather observations for VIC | Other Formats
Station Details ID: 086361 Name: CERBERUS Lat: -38.36 Lon: 145.18 Height: 12.69 m
Data from the previous 72 hours. | See also: Recent months at Cerberus
Date/Time
EST
Temp
°C
App
Temp
°C
Dew
Point
Rel
Hum
%
Delta-T
°C
Wind Press
QNH
hPa
Press
MSL
hPa
Rain
since 9 am
mm
Dir
 
Spd
km/h
Gust
km/h
Spd
kts
Gust
kts
04/05:30pm 11.3 9.4 4.7 64 3.0 SW 4 13 2 7 1024.3 1024.3 0.0
04/05:00pm 11.4 8.2 5.1 65 2.9 S 11 19 6 10 1024.1 1024.1 0.0
04/04:30pm 11.7 7.4 5.3 65 2.9 SSE 17 28 9 15 1024.0 1024.0 0.0
04/04:00pm 12.1 8.1 4.8 61 3.3 SSE 15 24 8 13 1023.9 1023.9 0.0
04/03:30pm 11.9 8.2 4.6 61 3.3 S 13 20 7 11 1023.8 1023.8 0.0
04/03:00pm 11.6 6.8 4.8 63 3.1 S 19 24 10 13 1023.9 1023.9 0.0
04/02:30pm 12.1 8.0 4.3 59 3.5 SSE 15 20 8 11 1023.8 1023.8 0.0
04/02:00pm 12.0 9.0 4.2 59 3.5 SSW 9 19 5 10 1023.9 1023.9 0.0
04/01:30pm 12.2 8.2 4.9 61 3.3 SSE 15 26 8 14 1024.2 1024.2 0.0
04/01:00pm 12.4 9.3 3.4 54 4.0 SE 9 19 5 10 1024.4 1024.4 0.0
04/12:30pm 12.6 8.5 4.6 58 3.7 SE 15 24 8 13 1024.8 1024.8 0.0
04/12:00pm 13.5 9.4 4.4 54 4.1 SSW 15 26 8 14 1025.1 1025.1 0.0
04/11:30am 12.9 8.6 3.0 51 4.4 SSW 15 26 8 14 1025.3 1025.3 0.0
04/11:00am 11.7 9.5 5.1 64 3.0 SSE 6 15 3 8 1025.6 1025.6 0.0
04/10:30am 11.6 9.5 5.7 67 2.7 SW 6 19 3 10 1025.6 1025.6 0.0
04/10:00am 11.5 9.1 5.4 66 2.8 S 7 17 4 9 1025.6 1025.6 0.0
04/09:30am 11.2 9.4 3.5 59 3.4 S 2 15 1 8 1025.6 1025.6 0.0
04/09:00am 11.3 8.0 2.6 55 3.7 SSW 9 19 5 10 1025.5 1025.5 0.0
04/08:30am 10.8 7.9 2.4 56 3.6 S 7 19 4 10 1025.5 1025.5 0.0
04/08:00am 10.5 7.8 2.4 57 3.4 S 6 15 3 8 1025.2 1025.2 0.0
04/07:30am 9.7 6.8 1.4 56 3.4 SSW 6 17 3 9 1025.0 1025.0 0.0
04/07:00am 9.7 7.4 2.8 62 2.9 SSW 4 19 2 10 1024.7 1024.7 0.0
04/06:30am 9.2 7.5 2.1 61 3.0 CALM 0 0 0 0 1024.5 1024.5 0.0
04/06:00am 9.7 7.2 1.8 58 3.3 S 4 15 2 8 1024.3 1024.3 0.0
04/05:30am 9.6 7.5 2.0 59 3.2 SSE 2 15 1 8 1024.1 1024.1 0.0
04/05:00am 9.8 6.8 1.9 58 3.3 SSE 7 22 4 12 1023.8 1023.8 0.0
04/04:30am 9.7 7.1 3.0 63 2.9 S 6 20 3 11 1023.5 1023.5 0.0
04/04:00am 9.2 7.8 3.4 67 2.5 CALM 0 0 0 0 1023.5 1023.5 0.0
04/03:30am 9.8 8.3 2.9 62 3.0 CALM 0 13 0 7 1023.5 1023.5 0.0
04/03:00am 9.8 8.2 2.2 59 3.2 CALM 0 15 0 8 1023.4 1023.4 0.0
04/02:30am 9.8 8.0 1.5 56 3.4 CALM 0 13 0 7 1023.3 1023.3 0.0
04/02:00am 10.0 7.9 1.4 55 3.5 SE 2 13 1 7 1023.5 1023.5 0.0
04/01:30am 10.2 7.4 2.3 58 3.4 S 6 17 3 9 1023.6 1023.6 0.0
04/01:00am 10.0 7.2 1.9 57 3.4 SSE 6 17 3 9 1023.5 1023.5 0.0
04/12:30am 10.2 7.9 2.6 59 3.3 SSE 4 24 2 13 1023.4 1023.4 0.0
04/12:00am 10.2 6.0 1.8 56 3.5 SSE 13 22 7 12 1023.3 1023.3 0.0
 
Date/Time
EST
Temp
°C
App
Temp
°C
Dew
Point
Rel
Hum
%
Delta-T
°C
Wind Press
QNH
hPa
Press
MSL
hPa
Rain
since 9 am
mm
Dir
 
Spd
km/h
Gust
km/h
Spd
kts
Gust
kts
03/11:30pm 10.2 6.5 2.3 58 3.4 SE 11 22 6 12 1023.2 1023.2 0.0
03/11:00pm 10.3 5.9 2.7 59 3.2 SE 15 26 8 14 1023.1 1023.1 0.0
03/10:30pm 10.2 6.3 3.3 62 3.0 SE 13 20 7 11 1023.0 1023.0 0.0
03/10:00pm 10.1 5.4 3.4 63 2.9 SE 17 30 9 16 1022.6 1022.6 0.0
03/09:30pm 10.3 6.1 4.0 65 2.8 SE 15 24 8 13 1022.3 1022.3 0.0
03/09:00pm 9.9 5.9 3.0 62 3.0 SE 13 28 7 15 1022.1 1022.1 0.0
03/08:30pm 10.0 5.4 3.7 65 2.8 SE 17 24 9 13 1021.7 1021.7 0.0
03/08:00pm 10.1 5.2 4.3 67 2.6 SE 19 28 10 15 1021.5 1021.5 0.0
03/07:30pm 10.1 5.2 4.0 66 2.7 SE 19 33 10 18 1021.1 1021.1 0.0
03/07:00pm 10.2 6.2 5.0 70 2.3 ESE 15 26 8 14 1020.8 1020.8 0.0
03/06:30pm 10.4 6.0 4.8 68 2.5 SE 17 32 9 17 1020.3 1020.3 0.0
03/06:00pm 10.5 5.7 4.9 68 2.5 ESE 19 28 10 15 1020.0 1020.0 0.0
03/05:30pm 11.1 6.2 5.2 67 2.7 SSE 20 32 11 17 1019.6 1019.6 0.0
03/05:00pm 11.8 7.1 6.1 68 2.7 SSE 20 30 11 16 1019.0 1019.0 0.0
03/04:30pm 11.8 6.7 5.9 67 2.8 SSW 22 33 12 18 1018.4 1018.4 0.0
03/04:00pm 12.3 7.3 6.6 68 2.7 SSW 22 35 12 19 1017.8 1017.8 0.0
03/03:30pm 12.7 7.4 6.7 67 2.9 S 24 39 13 21 1017.4 1017.4 0.0
03/03:00pm 12.6 7.9 7.9 73 2.3 S 22 35 12 19 1017.0 1017.0 0.0
03/02:30pm 12.6 7.8 7.5 71 2.5 S 22 33 12 18 1016.4 1016.4 0.0
03/02:00pm 14.0 9.1 8.6 70 2.7 SSE 24 39 13 21 1016.1 1016.1 0.0
03/01:30pm 14.1 8.8 8.5 69 2.8 SE 26 37 14 20 1015.9 1015.9 0.0
03/01:00pm 13.2 8.7 8.5 73 2.3 SSE 22 35 12 19 1015.8 1015.8 0.0
03/12:30pm 13.2 8.5 9.3 77 2.0 SSE 24 35 13 19 1015.6 1015.6 0.0
03/12:00pm 13.9 10.2 9.5 75 2.3 SSW 19 33 10 18 1015.4 1015.4 0.0
03/11:30am 13.1 9.3 9.7 80 1.7 SSE 20 30 11 16 1015.2 1015.2 0.0
03/11:00am 12.7 9.1 9.7 82 1.5 SE 19 28 10 15 1015.1 1015.1 0.0
03/10:30am 12.8 9.2 9.8 82 1.5 SE 19 30 10 16 1014.5 1014.5 0.0
03/10:00am 13.1 9.3 9.9 81 1.6 ESE 20 32 11 17 1014.0 1014.0 0.0
03/09:30am 12.8 8.9 9.6 81 1.6 SE 20 35 11 19 1013.3 1013.4 0.0
03/09:00am 13.0 9.3 10.2 83 1.4 SE 20 28 11 15 1012.6 1012.7 0.4
03/08:30am 12.4 9.6 10.0 85 1.2 SE 15 20 8 11 1011.9 1012.0 0.4
03/08:00am 12.0 8.7 9.7 86 1.2 SE 17 22 9 12 1011.5 1011.6 0.4
03/07:30am 11.6 9.9 9.7 88 1.0 SE 9 17 5 9 1010.8 1010.8 0.4
03/07:00am 11.3 10.4 9.4 88 1.0 ESE 4 13 2 7 1010.3 1010.3 0.4
03/06:30am 11.2 10.7 9.3 88 1.0 ESE 2 11 1 6 1009.8 1009.8 0.4
03/06:00am 11.2 11.1 9.3 88 1.0 CALM 0 0 0 0 1009.4 1009.4 0.4
03/05:30am 11.3 11.1 9.0 86 1.1 CALM 0 0 0 0 1009.1 1009.1 0.4
03/05:00am 11.5 11.3 8.9 84 1.3 CALM 0 0 0 0 1008.7 1008.7 0.4
03/04:30am 11.5 11.1 8.4 81 1.5 CALM 0 11 0 6 1008.2 1008.2 0.4
03/04:00am 11.7 11.1 8.9 83 1.4 SSE 2 11 1 6 1007.7 1007.7 0.4
03/03:30am 11.9 10.4 9.1 83 1.4 SE 7 17 4 9 1007.4 1007.4 0.4
03/03:00am 11.9 10.7 9.6 86 1.2 SE 6 13 3 7 1007.5 1007.5 0.4
03/02:30am 11.6 11.2 9.7 88 1.0 SSE 2 11 1 6 1007.7 1007.7 0.4
03/02:00am 11.4 11.3 9.5 88 1.0 CALM 0 9 0 5 1007.9 1007.9 0.4
03/01:30am 11.4 11.3 9.5 88 1.0 CALM 0 0 0 0 1007.8 1007.8 0.4
03/01:00am 10.5 10.4 9.3 92 0.6 CALM 0 0 0 0 1007.6 1007.6 0.4
03/12:30am 9.7 9.4 8.5 92 0.6 CALM 0 0 0 0 1007.5 1007.5 0.4
03/12:00am 9.3 8.8 7.9 91 0.7 CALM 0 0 0 0 1007.6 1007.6 0.4
 
Date/Time
EST
Temp
°C
App
Temp
°C
Dew
Point
Rel
Hum
%
Delta-T
°C
Wind Press
QNH
hPa
Press
MSL
hPa
Rain
since 9 am
mm
Dir
 
Spd
km/h
Gust
km/h
Spd
kts
Gust
kts
02/11:30pm 9.9 9.4 8.0 88 0.9 CALM 0 0 0 0 1007.7 1007.7 0.4
02/11:00pm 10.4 10.0 8.3 87 1.0 CALM 0 0 0 0 1008.2 1008.2 0.4
02/10:30pm 10.6 10.3 8.5 87 1.0 CALM 0 0 0 0 1008.3 1008.3 0.4
02/10:00pm 10.9 10.6 8.7 86 1.1 CALM 0 0 0 0 1008.6 1008.6 0.4
02/09:30pm 11.1 10.8 8.7 85 1.2 CALM 0 0 0 0 1008.8 1008.8 0.4
02/09:00pm 10.9 10.5 8.3 84 1.3 CALM 0 0 0 0 1008.8 1008.8 0.4
02/08:30pm 11.1 10.9 9.0 87 1.0 CALM 0 0 0 0 1008.6 1008.6 0.4
02/08:00pm 11.2 11.0 8.9 86 1.1 CALM 0 0 0 0 1008.4 1008.4 0.4
02/07:30pm 11.5 11.2 8.7 83 1.4 CALM 0 0 0 0 1008.4 1008.4 0.4
02/07:00pm 12.0 11.8 9.0 82 1.5 CALM 0 0 0 0 1008.3 1008.3 0.4
02/06:30pm 13.3 11.1 7.7 69 2.8 WNW 9 15 5 8 1008.4 1008.4 0.0
02/06:00pm 14.3 12.8 8.5 68 2.9 N 6 9 3 5 1008.1 1008.1 0.0
02/05:30pm 14.7 13.1 8.2 65 3.3 ESE 6 9 3 5 1007.5 1007.5 0.0
02/05:00pm 16.0 15.0 7.2 56 4.4 NE 2 4 1 2 1007.2 1007.2 0.0
02/04:30pm 17.0 14.9 5.9 48 5.4 NNE 6 11 3 6 1006.9 1006.9 0.0
02/04:00pm 17.1 14.7 5.4 46 5.6 NNE 7 11 4 6 1006.9 1006.9 0.0
02/03:30pm 17.4 15.1 5.7 46 5.7 N 7 15 4 8 1007.3 1007.3 0.0
02/03:00pm 17.6 14.9 5.5 45 5.9 N 9 13 5 7 1007.3 1007.3 0.0
02/02:30pm 18.4 15.9 4.9 41 6.5 NNE 7 20 4 11 1007.6 1007.6 0.0
02/02:00pm 17.6 14.3 4.6 42 6.2 N 11 22 6 12 1008.1 1008.1 0.0
02/01:30pm 18.3 15.2 5.5 43 6.2 N 11 20 6 11 1008.6 1008.6 0.0
02/01:00pm 17.7 14.6 5.6 45 5.9 N 11 24 6 13 1009.2 1009.2 0.0
02/12:30pm 17.1 14.2 6.6 50 5.2 N 11 19 6 10 1009.8 1009.8 0.0
02/12:00pm 16.9 13.6 6.4 50 5.2 N 13 22 7 12 1010.1 1010.1 0.0
02/11:30am 15.0 13.4 8.7 66 3.2 N 7 15 4 8 1010.7 1010.7 0.0
02/11:00am 13.9 11.9 7.2 64 3.3 N 7 17 4 9 1011.2 1011.3 0.0
02/10:30am 13.1 11.6 6.7 65 3.1 N 4 13 2 7 1011.4 1011.5 0.0
02/10:00am 11.9 9.8 6.6 70 2.5 NNE 7 15 4 8 1011.8 1011.9 0.0
02/09:30am 11.2 9.5 6.1 71 2.4 NE 4 11 2 6 1012.1 1012.2 0.0
02/09:00am 9.8 8.4 5.6 75 1.9 N 2 13 1 7 1012.3 1012.4 0.0
02/08:30am 9.0 7.2 5.4 78 1.6 N 4 15 2 8 1012.3 1012.4 0.0
02/08:00am 7.2 6.1 5.2 87 0.9 CALM 0 9 0 5 1012.3 1012.4 0.0
02/07:30am 5.2 3.9 3.9 91 0.5 CALM 0 0 0 0 1012.6 1012.7 0.0
02/07:00am 4.6 3.2 3.4 92 0.5 CALM 0 7 0 4 1012.3 1012.4 0.0
02/06:30am 4.4 2.9 3.2 92 0.5 CALM 0 0 0 0 1012.4 1012.5 0.0
02/06:00am 4.6 3.2 3.6 93 0.4 CALM 0 0 0 0 1012.5 1012.6 0.0
02/05:30am 4.3 2.8 3.1 92 0.5 CALM 0 0 0 0 1012.5 1012.6 0.0
02/05:00am 5.0 3.7 4.0 93 0.4 CALM 0 9 0 5 1012.5 1012.6 0.0
02/04:30am 4.5 3.1 3.5 93 0.4 CALM 0 0 0 0 1012.4 1012.5 0.0
02/04:00am 4.5 3.1 3.5 93 0.4 CALM 0 0 0 0 1012.5 1012.6 0.0
02/03:30am 4.1 2.6 2.9 92 0.5 CALM 0 0 0 0 1012.6 1012.7 0.0
02/03:00am 4.8 3.4 3.8 93 0.4 CALM 0 0 0 0 1012.7 1012.8 0.0
02/02:30am 4.2 2.7 3.0 92 0.5 CALM 0 0 0 0 1013.2 1013.3 0.0
02/02:00am 4.9 3.6 3.9 93 0.4 CALM 0 0 0 0 1013.6 1013.6 0.0
02/01:30am 5.2 3.9 4.2 93 0.4 CALM 0 0 0 0 1013.6 1013.6 0.0
02/01:00am 5.4 4.2 4.4 93 0.4 CALM 0 0 0 0 1013.4 1013.5 0.0
02/12:30am 5.2 3.9 4.2 93 0.4 CALM 0 0 0 0 1013.6 1013.6 0.0
02/12:00am 4.3 2.8 3.1 92 0.5 CALM 0 0 0 0 1013.6 1013.6 0.0
 
Date/Time
EST
Temp
°C
App
Temp
°C
Dew
Point
Rel
Hum
%
Delta-T
°C
Wind Press
QNH
hPa
Press
MSL
hPa
Rain
since 9 am
mm
Dir
 
Spd
km/h
Gust
km/h
Spd
kts
Gust
kts
01/11:30pm 3.5 1.9 2.3 92 0.5 CALM 0 0 0 0 1013.9 1013.9 0.0
01/11:00pm 4.5 3.1 3.3 92 0.5 CALM 0 0 0 0 1014.2 1014.2 0.0
01/10:30pm 4.4 2.9 3.2 92 0.5 CALM 0 0 0 0 1014.4 1014.4 0.0
01/10:00pm 4.4 2.9 3.1 91 0.5 CALM 0 0 0 0 1014.5 1014.5 0.0
01/09:30pm 4.1 2.5 2.6 90 0.6 CALM 0 0 0 0 1014.6 1014.6 0.0
01/09:00pm 4.6 3.1 2.9 89 0.7 CALM 0 0 0 0 1014.7 1014.7 0.0
01/08:30pm 5.1 3.7 3.4 89 0.7 CALM 0 0 0 0 1014.4 1014.4 0.0
01/08:00pm 5.7 4.3 3.7 87 0.8 CALM 0 0 0 0 1014.3 1014.3 0.0
01/07:30pm 7.0 5.8 4.7 85 1.0 CALM 0 0 0 0 1014.2 1014.2 0.0
01/07:00pm 8.0 6.8 4.8 80 1.4 CALM 0 0 0 0 1014.1 1014.1 0.0
01/06:30pm 8.2 7.0 4.8 79 1.5 CALM 0 0 0 0 1014.1 1014.1 0.0
01/06:00pm 9.4 8.2 4.6 72 2.1 CALM 0 0 0 0 1013.9 1013.9 0.0

Other Formats:

Comma delimited format used in spreadsheet applications
http://www.bom.gov.au/fwo/IDV60801/IDV60801.94898.axf

JavaScript Object Notation format (JSON) in row-major order
http://www.bom.gov.au/fwo/IDV60801/IDV60801.94898.json